Windham, NH (03087)

11:16 AM EDT on April 28, 2017 (GMT -0400)
Heritage Hill | | Change Station

Elev 371 ft 42.78 °N, 71.33 °W | Updated 10 seconds ago

Overcast
Overcast
66.7 °F
Feels Like 66.7 °F
N
4.0
Wind Variable Wind from NW
Gusts 8.0 mph

Today
High -- | Low -- °F
--% Chance of Precip.
Yesterday
High -- | Low -- °F
Precip. -- in
Pressure 29.97 in
Visibility 10.0 miles
Clouds Overcast 1300 ft
Dew Point Not available.
Humidity Not available.
Rainfall 0.00 in
Snow Depth Not available.
5:43 AM 7:42 PM
Waxing Crescent, 7% visible
METAR KLWM 281454Z 24006KT 10SM OVC013 19/16 A2997 RMK AO2 SLP147 60000 T01940156 53001
Pressure 29.97 in
Visibility 10.0 miles
Clouds Overcast 1300 ft
Dew Point Not available.
Humidity Not available.
Rainfall 0.00 in
Snow Depth Not available.
5:43 AM 7:42 PM
Waxing Crescent, 7% visible
METAR KLWM 281454Z 24006KT 10SM OVC013 19/16 A2997 RMK AO2 SLP147 60000 T01940156 53001

Get Severe Weather Alerts

Thanks for signing up!

Be on the lookout for a verification email in your inbox.

You'll start receiving the daily forecast at 8 AM.

×

10-Day Weather Forecast

Almanac

Astronomy

Apr. 28, 2017 Rise Set
Actual Time
Civil Twilight
Nautical Twilight
Astronomical Twilight
Moon
Length of Visible Light
Length of Day
Tomorrow will be .
, % of the Moon is Illuminated

Today's Extremes

State Highs State Lows

Community

WunderPhotos

WunderBlog® & News

Nearby

Air Quality

  Air Quality AQ Index Pollutant
Not available.

Snow Depth

Station Depth Elevation

Earthquake Activity

City Distance Mag. Time & Date
Minimum magnitude displayed is 2.5.

Coastal Water Temperatures

Place Temperature

Stations

Nearby Weather Stations

Station Location Temp. Windchill Dew Point Humidity Wind Precip. Elev Updated Type
                   

Watches & Warnings

There are currently no watches in effect.